sensor_id;sensor_type;location;lat;lon;timestamp;temperature;humidity
41262;DHT22;29629;52.532;13.352;2023-06-14T00:04:27;15.70;99.90
41262;DHT22;29629;52.532;13.352;2023-06-14T00:06:55;15.60;99.90
41262;DHT22;29629;52.532;13.352;2023-06-14T00:09:23;15.60;99.90
41262;DHT22;29629;52.532;13.352;2023-06-14T00:11:50;15.60;99.90
41262;DHT22;29629;52.532;13.352;2023-06-14T00:14:17;15.60;99.90
41262;DHT22;29629;52.532;13.352;2023-06-14T00:16:44;15.60;99.90
41262;DHT22;29629;52.532;13.352;2023-06-14T00:19:11;15.50;99.90
41262;DHT22;29629;52.532;13.352;2023-06-14T00:21:39;15.50;99.90
41262;DHT22;29629;52.532;13.352;2023-06-14T00:24:07;15.50;99.90
41262;DHT22;29629;52.532;13.352;2023-06-14T00:26:34;15.40;99.90
41262;DHT22;29629;52.532;13.352;2023-06-14T00:29:01;15.40;99.90
41262;DHT22;29629;52.532;13.352;2023-06-14T00:31:28;15.30;99.90
41262;DHT22;29629;52.532;13.352;2023-06-14T00:33:54;15.40;99.90
41262;DHT22;29629;52.532;13.352;2023-06-14T00:36:21;15.40;99.90
41262;DHT22;29629;52.532;13.352;2023-06-14T00:38:50;15.30;99.90
41262;DHT22;29629;52.532;13.352;2023-06-14T00:41:16;15.30;99.90
41262;DHT22;29629;52.532;13.352;2023-06-14T00:43:43;15.30;99.90
41262;DHT22;29629;52.532;13.352;2023-06-14T00:46:10;15.30;99.90
41262;DHT22;29629;52.532;13.352;2023-06-14T00:48:39;15.20;99.90
41262;DHT22;29629;52.532;13.352;2023-06-14T00:51:06;15.20;99.90
41262;DHT22;29629;52.532;13.352;2023-06-14T00:53:33;15.20;99.90
41262;DHT22;29629;52.532;13.352;2023-06-14T00:56:03;15.20;99.90
41262;DHT22;29629;52.532;13.352;2023-06-14T00:58:30;15.10;99.90
41262;DHT22;29629;52.532;13.352;2023-06-14T01:00:57;15.10;99.90
41262;DHT22;29629;52.532;13.352;2023-06-14T01:03:24;15.10;99.90
41262;DHT22;29629;52.532;13.352;2023-06-14T01:06:04;15.10;99.90
41262;DHT22;29629;52.532;13.352;2023-06-14T01:08:40;15.10;99.90
41262;DHT22;29629;52.532;13.352;2023-06-14T01:11:21;15.10;99.90
41262;DHT22;29629;52.532;13.352;2023-06-14T01:13:50;15.10;99.90
41262;DHT22;29629;52.532;13.352;2023-06-14T01:16:18;15.10;99.90
41262;DHT22;29629;52.532;13.352;2023-06-14T01:18:46;15.10;99.90
41262;DHT22;29629;52.532;13.352;2023-06-14T01:21:20;15.00;99.90
41262;DHT22;29629;52.532;13.352;2023-06-14T01:23:49;15.10;99.90
41262;DHT22;29629;52.532;13.352;2023-06-14T01:26:19;15.10;99.90
41262;DHT22;29629;52.532;13.352;2023-06-14T01:28:47;15.00;99.90
41262;DHT22;29629;52.532;13.352;2023-06-14T01:31:17;15.00;99.90
41262;DHT22;29629;52.532;13.352;2023-06-14T01:33:48;15.00;99.90
41262;DHT22;29629;52.532;13.352;2023-06-14T01:36:15;15.00;99.90
41262;DHT22;29629;52.532;13.352;2023-06-14T01:38:44;15.00;99.90
41262;DHT22;29629;52.532;13.352;2023-06-14T01:41:14;15.00;99.90
41262;DHT22;29629;52.532;13.352;2023-06-14T01:43:41;15.00;99.90
41262;DHT22;29629;52.532;13.352;2023-06-14T01:46:09;15.00;99.90
41262;DHT22;29629;52.532;13.352;2023-06-14T01:48:37;15.00;99.90
41262;DHT22;29629;52.532;13.352;2023-06-14T01:51:04;15.00;99.90
41262;DHT22;29629;52.532;13.352;2023-06-14T01:53:31;15.00;99.90
41262;DHT22;29629;52.532;13.352;2023-06-14T01:55:58;15.00;99.90
41262;DHT22;29629;52.532;13.352;2023-06-14T01:58:27;14.90;99.90
41262;DHT22;29629;52.532;13.352;2023-06-14T02:00:54;14.80;99.90
41262;DHT22;29629;52.532;13.352;2023-06-14T02:03:22;14.90;99.90
41262;DHT22;29629;52.532;13.352;2023-06-14T02:05:50;14.80;99.90
41262;DHT22;29629;52.532;13.352;2023-06-14T02:08:17;14.90;99.90
41262;DHT22;29629;52.532;13.352;2023-06-14T02:10:44;14.80;99.90
41262;DHT22;29629;52.532;13.352;2023-06-14T02:13:11;14.80;99.90
41262;DHT22;29629;52.532;13.352;2023-06-14T02:15:39;14.80;99.90
41262;DHT22;29629;52.532;13.352;2023-06-14T02:18:09;14.80;99.90
41262;DHT22;29629;52.532;13.352;2023-06-14T02:20:36;14.80;99.90
41262;DHT22;29629;52.532;13.352;2023-06-14T02:23:03;14.70;99.90
41262;DHT22;29629;52.532;13.352;2023-06-14T02:25:30;14.70;99.90
41262;DHT22;29629;52.532;13.352;2023-06-14T02:27:57;14.70;99.90
41262;DHT22;29629;52.532;13.352;2023-06-14T02:30:24;14.70;99.90
41262;DHT22;29629;52.532;13.352;2023-06-14T02:32:53;14.70;99.90
41262;DHT22;29629;52.532;13.352;2023-06-14T02:35:20;14.70;99.90
41262;DHT22;29629;52.532;13.352;2023-06-14T02:37:50;14.70;99.90
41262;DHT22;29629;52.532;13.352;2023-06-14T02:40:18;14.60;99.90
41262;DHT22;29629;52.532;13.352;2023-06-14T02:42:44;14.70;99.90
41262;DHT22;29629;52.532;13.352;2023-06-14T02:45:11;14.70;99.90
41262;DHT22;29629;52.532;13.352;2023-06-14T02:47:38;14.60;99.90
41262;DHT22;29629;52.532;13.352;2023-06-14T02:50:08;14.50;99.90
41262;DHT22;29629;52.532;13.352;2023-06-14T02:52:35;14.50;99.90
41262;DHT22;29629;52.532;13.352;2023-06-14T02:55:03;14.50;99.90
41262;DHT22;29629;52.532;13.352;2023-06-14T02:57:30;14.40;99.90
41262;DHT22;29629;52.532;13.352;2023-06-14T02:59:57;14.40;99.90
41262;DHT22;29629;52.532;13.352;2023-06-14T03:02:24;14.40;99.90
41262;DHT22;29629;52.532;13.352;2023-06-14T03:04:51;14.50;99.90
41262;DHT22;29629;52.532;13.352;2023-06-14T03:07:19;14.40;99.90
41262;DHT22;29629;52.532;13.352;2023-06-14T03:09:46;14.40;99.90
41262;DHT22;29629;52.532;13.352;2023-06-14T03:12:14;14.50;99.90
41262;DHT22;29629;52.532;13.352;2023-06-14T03:14:41;14.40;99.90
41262;DHT22;29629;52.532;13.352;2023-06-14T03:17:12;14.30;99.90
41262;DHT22;29629;52.532;13.352;2023-06-14T03:19:39;14.30;99.90
41262;DHT22;29629;52.532;13.352;2023-06-14T03:22:06;14.40;99.90
41262;DHT22;29629;52.532;13.352;2023-06-14T03:24:35;14.40;99.90
41262;DHT22;29629;52.532;13.352;2023-06-14T03:27:03;14.40;99.90
41262;DHT22;29629;52.532;13.352;2023-06-14T03:29:30;14.30;99.90
41262;DHT22;29629;52.532;13.352;2023-06-14T03:31:59;14.30;99.90
41262;DHT22;29629;52.532;13.352;2023-06-14T03:34:26;14.40;99.90
41262;DHT22;29629;52.532;13.352;2023-06-14T03:36:53;14.40;99.90
41262;DHT22;29629;52.532;13.352;2023-06-14T03:39:20;14.50;99.90
41262;DHT22;29629;52.532;13.352;2023-06-14T03:41:49;14.50;99.90
41262;DHT22;29629;52.532;13.352;2023-06-14T03:44:17;14.50;99.90
41262;DHT22;29629;52.532;13.352;2023-06-14T03:46:44;14.50;99.90
41262;DHT22;29629;52.532;13.352;2023-06-14T03:49:11;14.50;99.90
41262;DHT22;29629;52.532;13.352;2023-06-14T03:51:38;14.50;99.90
41262;DHT22;29629;52.532;13.352;2023-06-14T03:54:06;14.60;99.90
41262;DHT22;29629;52.532;13.352;2023-06-14T03:56:33;14.60;99.90
41262;DHT22;29629;52.532;13.352;2023-06-14T03:59:02;14.70;99.90
41262;DHT22;29629;52.532;13.352;2023-06-14T04:01:29;14.80;99.90
41262;DHT22;29629;52.532;13.352;2023-06-14T04:03:56;14.90;99.90
41262;DHT22;29629;52.532;13.352;2023-06-14T04:06:24;14.90;99.90
41262;DHT22;29629;52.532;13.352;2023-06-14T04:08:58;15.00;99.90
41262;DHT22;29629;52.532;13.352;2023-06-14T04:11:29;15.10;99.90
41262;DHT22;29629;52.532;13.352;2023-06-14T04:13:56;15.10;99.90
41262;DHT22;29629;52.532;13.352;2023-06-14T04:16:25;15.20;99.90
41262;DHT22;29629;52.532;13.352;2023-06-14T04:18:52;15.30;99.90
41262;DHT22;29629;52.532;13.352;2023-06-14T04:21:20;15.30;99.90
41262;DHT22;29629;52.532;13.352;2023-06-14T04:23:49;15.30;99.90
41262;DHT22;29629;52.532;13.352;2023-06-14T04:26:18;15.40;99.90
41262;DHT22;29629;52.532;13.352;2023-06-14T04:28:46;15.50;99.90
41262;DHT22;29629;52.532;13.352;2023-06-14T04:31:13;15.50;99.90
41262;DHT22;29629;52.532;13.352;2023-06-14T04:33:43;15.60;99.90
41262;DHT22;29629;52.532;13.352;2023-06-14T04:36:12;15.60;99.90
41262;DHT22;29629;52.532;13.352;2023-06-14T04:38:39;15.60;99.90
41262;DHT22;29629;52.532;13.352;2023-06-14T04:41:06;15.70;99.90
41262;DHT22;29629;52.532;13.352;2023-06-14T04:43:37;15.70;99.90
41262;DHT22;29629;52.532;13.352;2023-06-14T04:46:05;15.80;99.90
41262;DHT22;29629;52.532;13.352;2023-06-14T04:48:35;15.90;99.90
41262;DHT22;29629;52.532;13.352;2023-06-14T04:51:04;16.00;99.90
41262;DHT22;29629;52.532;13.352;2023-06-14T04:53:31;16.00;99.90
41262;DHT22;29629;52.532;13.352;2023-06-14T04:55:58;16.10;99.90
41262;DHT22;29629;52.532;13.352;2023-06-14T04:58:26;16.10;99.90
41262;DHT22;29629;52.532;13.352;2023-06-14T05:00:54;16.20;99.90
41262;DHT22;29629;52.532;13.352;2023-06-14T05:03:21;16.20;99.90
41262;DHT22;29629;52.532;13.352;2023-06-14T05:05:49;16.30;99.90
41262;DHT22;29629;52.532;13.352;2023-06-14T05:08:20;16.40;99.90
41262;DHT22;29629;52.532;13.352;2023-06-14T05:10:49;16.50;99.90
41262;DHT22;29629;52.532;13.352;2023-06-14T05:13:16;16.60;99.90
41262;DHT22;29629;52.532;13.352;2023-06-14T05:15:43;16.50;99.90
41262;DHT22;29629;52.532;13.352;2023-06-14T05:18:10;16.40;99.90
41262;DHT22;29629;52.532;13.352;2023-06-14T05:20:38;16.40;99.90
41262;DHT22;29629;52.532;13.352;2023-06-14T05:23:07;16.40;99.90
41262;DHT22;29629;52.532;13.352;2023-06-14T05:25:35;16.50;99.90
41262;DHT22;29629;52.532;13.352;2023-06-14T05:28:03;16.60;99.90
41262;DHT22;29629;52.532;13.352;2023-06-14T05:30:30;16.60;99.90
41262;DHT22;29629;52.532;13.352;2023-06-14T05:32:58;16.70;99.90
41262;DHT22;29629;52.532;13.352;2023-06-14T05:35:25;16.70;99.90
41262;DHT22;29629;52.532;13.352;2023-06-14T05:37:52;16.70;99.90
41262;DHT22;29629;52.532;13.352;2023-06-14T05:40:20;16.80;99.90
41262;DHT22;29629;52.532;13.352;2023-06-14T05:42:48;16.90;99.90
41262;DHT22;29629;52.532;13.352;2023-06-14T05:45:16;16.90;99.90
41262;DHT22;29629;52.532;13.352;2023-06-14T05:47:42;16.90;99.90
41262;DHT22;29629;52.532;13.352;2023-06-14T05:50:10;17.00;99.90
41262;DHT22;29629;52.532;13.352;2023-06-14T05:52:37;17.10;99.90
41262;DHT22;29629;52.532;13.352;2023-06-14T05:55:04;17.00;99.90
41262;DHT22;29629;52.532;13.352;2023-06-14T05:57:31;17.10;99.90
41262;DHT22;29629;52.532;13.352;2023-06-14T06:00:00;17.10;99.90
41262;DHT22;29629;52.532;13.352;2023-06-14T06:02:31;17.10;99.90
41262;DHT22;29629;52.532;13.352;2023-06-14T06:04:58;17.20;99.90
41262;DHT22;29629;52.532;13.352;2023-06-14T06:07:25;17.20;99.90
41262;DHT22;29629;52.532;13.352;2023-06-14T06:09:51;17.30;99.90
41262;DHT22;29629;52.532;13.352;2023-06-14T06:12:18;17.20;99.90
41262;DHT22;29629;52.532;13.352;2023-06-14T06:14:45;17.20;99.90
41262;DHT22;29629;52.532;13.352;2023-06-14T06:17:14;17.10;99.90
41262;DHT22;29629;52.532;13.352;2023-06-14T06:19:41;17.20;99.90
41262;DHT22;29629;52.532;13.352;2023-06-14T06:22:07;17.30;99.90
41262;DHT22;29629;52.532;13.352;2023-06-14T06:24:35;17.30;99.90
41262;DHT22;29629;52.532;13.352;2023-06-14T06:27:01;17.30;99.90
41262;DHT22;29629;52.532;13.352;2023-06-14T06:29:28;17.40;99.90
41262;DHT22;29629;52.532;13.352;2023-06-14T06:31:55;17.50;99.90
41262;DHT22;29629;52.532;13.352;2023-06-14T06:34:24;17.50;99.90
41262;DHT22;29629;52.532;13.352;2023-06-14T06:36:51;17.50;99.90
41262;DHT22;29629;52.532;13.352;2023-06-14T06:39:18;17.60;99.90
41262;DHT22;29629;52.532;13.352;2023-06-14T06:41:45;17.50;99.90
41262;DHT22;29629;52.532;13.352;2023-06-14T06:44:12;17.50;99.90
41262;DHT22;29629;52.532;13.352;2023-06-14T06:46:39;17.50;99.90
41262;DHT22;29629;52.532;13.352;2023-06-14T06:49:06;17.50;99.90
41262;DHT22;29629;52.532;13.352;2023-06-14T06:51:35;17.50;99.90
41262;DHT22;29629;52.532;13.352;2023-06-14T06:54:02;17.60;99.90
41262;DHT22;29629;52.532;13.352;2023-06-14T06:56:29;17.60;99.90
41262;DHT22;29629;52.532;13.352;2023-06-14T06:58:57;17.60;99.90
41262;DHT22;29629;52.532;13.352;2023-06-14T07:01:24;17.70;99.90
41262;DHT22;29629;52.532;13.352;2023-06-14T07:03:51;17.90;99.90
41262;DHT22;29629;52.532;13.352;2023-06-14T07:06:18;17.90;99.90
41262;DHT22;29629;52.532;13.352;2023-06-14T07:08:47;17.90;99.90
41262;DHT22;29629;52.532;13.352;2023-06-14T07:11:14;17.90;99.90
41262;DHT22;29629;52.532;13.352;2023-06-14T07:13:41;17.90;99.90
41262;DHT22;29629;52.532;13.352;2023-06-14T07:16:08;18.00;99.90
41262;DHT22;29629;52.532;13.352;2023-06-14T07:18:35;18.10;99.90
41262;DHT22;29629;52.532;13.352;2023-06-14T07:21:03;18.30;99.90
41262;DHT22;29629;52.532;13.352;2023-06-14T07:23:30;18.30;99.90
41262;DHT22;29629;52.532;13.352;2023-06-14T07:25:58;18.40;99.90
41262;DHT22;29629;52.532;13.352;2023-06-14T07:28:25;18.40;99.90
41262;DHT22;29629;52.532;13.352;2023-06-14T07:30:52;18.50;99.90
41262;DHT22;29629;52.532;13.352;2023-06-14T07:33:19;18.50;99.90
41262;DHT22;29629;52.532;13.352;2023-06-14T07:35:46;18.60;99.90
41262;DHT22;29629;52.532;13.352;2023-06-14T07:38:13;18.70;99.90
41262;DHT22;29629;52.532;13.352;2023-06-14T07:40:40;18.90;99.90
41262;DHT22;29629;52.532;13.352;2023-06-14T07:43:08;19.10;99.90
41262;DHT22;29629;52.532;13.352;2023-06-14T07:45:36;19.30;99.90
41262;DHT22;29629;52.532;13.352;2023-06-14T07:48:04;19.60;99.90
41262;DHT22;29629;52.532;13.352;2023-06-14T07:50:31;19.70;99.90
41262;DHT22;29629;52.532;13.352;2023-06-14T07:52:58;19.90;99.90
41262;DHT22;29629;52.532;13.352;2023-06-14T07:55:25;20.20;99.90
41262;DHT22;29629;52.532;13.352;2023-06-14T07:57:53;20.60;99.90
41262;DHT22;29629;52.532;13.352;2023-06-14T08:00:22;20.70;99.90
41262;DHT22;29629;52.532;13.352;2023-06-14T08:02:49;21.10;99.90
41262;DHT22;29629;52.532;13.352;2023-06-14T08:05:16;21.20;99.90
41262;DHT22;29629;52.532;13.352;2023-06-14T08:07:43;21.30;99.90
41262;DHT22;29629;52.532;13.352;2023-06-14T08:10:10;21.30;99.90
41262;DHT22;29629;52.532;13.352;2023-06-14T08:12:37;21.30;99.90
41262;DHT22;29629;52.532;13.352;2023-06-14T08:15:05;21.60;99.90
41262;DHT22;29629;52.532;13.352;2023-06-14T08:17:33;21.80;99.90
41262;DHT22;29629;52.532;13.352;2023-06-14T08:20:00;22.00;99.90
41262;DHT22;29629;52.532;13.352;2023-06-14T08:22:27;22.10;99.90
41262;DHT22;29629;52.532;13.352;2023-06-14T08:24:57;22.10;99.90
41262;DHT22;29629;52.532;13.352;2023-06-14T08:27:24;22.10;99.90
41262;DHT22;29629;52.532;13.352;2023-06-14T08:29:51;22.30;99.90
41262;DHT22;29629;52.532;13.352;2023-06-14T08:32:18;22.40;99.90
41262;DHT22;29629;52.532;13.352;2023-06-14T08:34:46;22.60;99.90
41262;DHT22;29629;52.532;13.352;2023-06-14T08:37:13;22.90;99.90
41262;DHT22;29629;52.532;13.352;2023-06-14T08:39:41;22.90;99.90
41262;DHT22;29629;52.532;13.352;2023-06-14T08:42:09;23.20;99.90
41262;DHT22;29629;52.532;13.352;2023-06-14T08:44:37;23.40;99.90
41262;DHT22;29629;52.532;13.352;2023-06-14T08:47:06;23.60;99.90
41262;DHT22;29629;52.532;13.352;2023-06-14T08:49:33;23.70;99.90
41262;DHT22;29629;52.532;13.352;2023-06-14T08:52:05;23.30;99.90
41262;DHT22;29629;52.532;13.352;2023-06-14T08:54:36;23.20;99.90
41262;DHT22;29629;52.532;13.352;2023-06-14T08:57:10;23.10;99.90
41262;DHT22;29629;52.532;13.352;2023-06-14T08:59:40;23.20;99.90
41262;DHT22;29629;52.532;13.352;2023-06-14T09:02:12;23.00;99.90
41262;DHT22;29629;52.532;13.352;2023-06-14T09:04:40;22.90;99.90
41262;DHT22;29629;52.532;13.352;2023-06-14T09:07:08;22.80;99.90
41262;DHT22;29629;52.532;13.352;2023-06-14T09:09:39;22.80;99.90
41262;DHT22;29629;52.532;13.352;2023-06-14T09:12:08;22.50;99.90
41262;DHT22;29629;52.532;13.352;2023-06-14T09:14:37;22.70;99.90
41262;DHT22;29629;52.532;13.352;2023-06-14T09:17:06;22.90;99.90
41262;DHT22;29629;52.532;13.352;2023-06-14T09:19:34;23.30;99.90
41262;DHT22;29629;52.532;13.352;2023-06-14T09:22:01;23.90;99.90
41262;DHT22;29629;52.532;13.352;2023-06-14T09:24:30;24.50;99.90
41262;DHT22;29629;52.532;13.352;2023-06-14T09:26:57;24.60;99.90
41262;DHT22;29629;52.532;13.352;2023-06-14T09:29:24;24.60;99.90
41262;DHT22;29629;52.532;13.352;2023-06-14T09:31:52;24.30;99.90
41262;DHT22;29629;52.532;13.352;2023-06-14T09:34:21;23.70;99.90
41262;DHT22;29629;52.532;13.352;2023-06-14T09:36:49;23.10;99.90
41262;DHT22;29629;52.532;13.352;2023-06-14T09:39:17;22.90;99.90
41262;DHT22;29629;52.532;13.352;2023-06-14T09:41:45;22.70;99.90
41262;DHT22;29629;52.532;13.352;2023-06-14T09:44:12;22.90;99.90
41262;DHT22;29629;52.532;13.352;2023-06-14T09:46:39;23.00;99.90
41262;DHT22;29629;52.532;13.352;2023-06-14T09:49:08;22.90;99.90
41262;DHT22;29629;52.532;13.352;2023-06-14T09:51:40;23.20;99.90
41262;DHT22;29629;52.532;13.352;2023-06-14T09:54:15;23.20;99.90
41262;DHT22;29629;52.532;13.352;2023-06-14T09:56:46;23.20;99.90
41262;DHT22;29629;52.532;13.352;2023-06-14T09:59:17;23.10;99.90
41262;DHT22;29629;52.532;13.352;2023-06-14T10:01:46;23.00;99.90
41262;DHT22;29629;52.532;13.352;2023-06-14T10:04:15;23.00;99.90
41262;DHT22;29629;52.532;13.352;2023-06-14T10:06:45;23.00;99.90
41262;DHT22;29629;52.532;13.352;2023-06-14T10:09:12;22.80;99.90
41262;DHT22;29629;52.532;13.352;2023-06-14T10:11:40;22.80;99.90
41262;DHT22;29629;52.532;13.352;2023-06-14T10:14:12;22.70;99.90
41262;DHT22;29629;52.532;13.352;2023-06-14T10:16:43;22.60;99.90
41262;DHT22;29629;52.532;13.352;2023-06-14T10:19:18;22.80;99.90
41262;DHT22;29629;52.532;13.352;2023-06-14T10:21:51;22.70;99.90
41262;DHT22;29629;52.532;13.352;2023-06-14T10:24:28;22.90;99.90
41262;DHT22;29629;52.532;13.352;2023-06-14T10:26:57;22.90;99.90
41262;DHT22;29629;52.532;13.352;2023-06-14T10:29:26;22.90;99.90
41262;DHT22;29629;52.532;13.352;2023-06-14T10:31:58;22.70;99.90
41262;DHT22;29629;52.532;13.352;2023-06-14T10:34:27;22.60;99.90
41262;DHT22;29629;52.532;13.352;2023-06-14T10:37:02;22.90;99.90
41262;DHT22;29629;52.532;13.352;2023-06-14T10:39:30;23.40;99.90
41262;DHT22;29629;52.532;13.352;2023-06-14T10:41:57;24.30;99.90
41262;DHT22;29629;52.532;13.352;2023-06-14T10:44:56;24.60;99.90
41262;DHT22;29629;52.532;13.352;2023-06-14T10:47:26;24.20;99.90
41262;DHT22;29629;52.532;13.352;2023-06-14T10:49:54;24.50;99.90
41262;DHT22;29629;52.532;13.352;2023-06-14T10:52:24;24.70;99.90
41262;DHT22;29629;52.532;13.352;2023-06-14T10:55:10;24.20;99.90
41262;DHT22;29629;52.532;13.352;2023-06-14T10:57:41;24.10;99.90
41262;DHT22;29629;52.532;13.352;2023-06-14T11:00:11;24.20;99.90
41262;DHT22;29629;52.532;13.352;2023-06-14T11:05:49;24.50;99.90
41262;DHT22;29629;52.532;13.352;2023-06-14T11:08:39;24.80;99.90
41262;DHT22;29629;52.532;13.352;2023-06-14T11:11:07;24.70;99.90
41262;DHT22;29629;52.532;13.352;2023-06-14T11:13:37;25.30;99.90
41262;DHT22;29629;52.532;13.352;2023-06-14T11:16:12;25.30;99.90
41262;DHT22;29629;52.532;13.352;2023-06-14T11:18:39;25.20;99.90
41262;DHT22;29629;52.532;13.352;2023-06-14T11:21:07;25.10;99.90
41262;DHT22;29629;52.532;13.352;2023-06-14T11:23:35;25.10;99.90
41262;DHT22;29629;52.532;13.352;2023-06-14T11:26:02;25.20;99.90
41262;DHT22;29629;52.532;13.352;2023-06-14T11:28:37;25.10;99.90
41262;DHT22;29629;52.532;13.352;2023-06-14T11:31:04;26.00;99.90
41262;DHT22;29629;52.532;13.352;2023-06-14T11:33:34;26.00;99.90
41262;DHT22;29629;52.532;13.352;2023-06-14T11:36:02;27.00;99.90
41262;DHT22;29629;52.532;13.352;2023-06-14T11:38:30;27.50;99.90
41262;DHT22;29629;52.532;13.352;2023-06-14T11:40:59;27.80;99.90
41262;DHT22;29629;52.532;13.352;2023-06-14T11:43:26;27.90;99.90
41262;DHT22;29629;52.532;13.352;2023-06-14T11:45:54;28.10;99.90
41262;DHT22;29629;52.532;13.352;2023-06-14T11:48:21;28.90;99.90
41262;DHT22;29629;52.532;13.352;2023-06-14T11:50:51;29.30;99.10
41262;DHT22;29629;52.532;13.352;2023-06-14T11:53:18;30.60;97.80
41262;DHT22;29629;52.532;13.352;2023-06-14T11:55:45;30.50;96.50
41262;DHT22;29629;52.532;13.352;2023-06-14T11:58:13;30.00;94.60
41262;DHT22;29629;52.532;13.352;2023-06-14T12:00:41;30.00;94.00
41262;DHT22;29629;52.532;13.352;2023-06-14T12:03:08;29.90;93.40
41262;DHT22;29629;52.532;13.352;2023-06-14T12:05:36;29.90;92.90
41262;DHT22;29629;52.532;13.352;2023-06-14T12:08:04;29.60;94.00
41262;DHT22;29629;52.532;13.352;2023-06-14T12:10:39;29.30;94.00
41262;DHT22;29629;52.532;13.352;2023-06-14T12:13:09;29.10;93.20
41262;DHT22;29629;52.532;13.352;2023-06-14T12:15:36;29.20;93.50
41262;DHT22;29629;52.532;13.352;2023-06-14T12:18:05;29.20;93.20
41262;DHT22;29629;52.532;13.352;2023-06-14T12:20:33;28.80;92.30
41262;DHT22;29629;52.532;13.352;2023-06-14T12:23:04;28.40;92.60
41262;DHT22;29629;52.532;13.352;2023-06-14T12:25:32;28.60;92.10
41262;DHT22;29629;52.532;13.352;2023-06-14T12:28:03;29.60;91.50
41262;DHT22;29629;52.532;13.352;2023-06-14T12:30:31;30.20;90.60
41262;DHT22;29629;52.532;13.352;2023-06-14T12:32:58;30.60;89.90
41262;DHT22;29629;52.532;13.352;2023-06-14T12:35:26;30.60;88.80
41262;DHT22;29629;52.532;13.352;2023-06-14T12:37:53;30.40;88.10
41262;DHT22;29629;52.532;13.352;2023-06-14T12:40:21;30.90;87.90
41262;DHT22;29629;52.532;13.352;2023-06-14T12:42:48;30.70;87.70
41262;DHT22;29629;52.532;13.352;2023-06-14T12:45:15;31.30;86.60
41262;DHT22;29629;52.532;13.352;2023-06-14T12:47:42;31.90;86.90
41262;DHT22;29629;52.532;13.352;2023-06-14T12:50:09;31.60;83.30
41262;DHT22;29629;52.532;13.352;2023-06-14T12:52:36;30.20;84.10
41262;DHT22;29629;52.532;13.352;2023-06-14T12:55:05;29.10;85.00
41262;DHT22;29629;52.532;13.352;2023-06-14T12:57:33;29.50;85.50
41262;DHT22;29629;52.532;13.352;2023-06-14T13:00:02;28.80;83.90
41262;DHT22;29629;52.532;13.352;2023-06-14T13:02:30;28.90;84.00
41262;DHT22;29629;52.532;13.352;2023-06-14T13:04:57;29.00;85.00
41262;DHT22;29629;52.532;13.352;2023-06-14T13:07:24;29.40;85.50
41262;DHT22;29629;52.532;13.352;2023-06-14T13:09:51;29.70;86.10
41262;DHT22;29629;52.532;13.352;2023-06-14T13:12:18;29.60;84.30
41262;DHT22;29629;52.532;13.352;2023-06-14T13:14:47;29.50;85.00
41262;DHT22;29629;52.532;13.352;2023-06-14T13:17:13;29.30;85.00
41262;DHT22;29629;52.532;13.352;2023-06-14T13:19:40;29.00;84.20
41262;DHT22;29629;52.532;13.352;2023-06-14T13:22:08;28.70;85.50
41262;DHT22;29629;52.532;13.352;2023-06-14T13:24:36;28.90;85.10
41262;DHT22;29629;52.532;13.352;2023-06-14T13:27:04;28.80;83.60
41262;DHT22;29629;52.532;13.352;2023-06-14T13:29:31;28.40;85.20
41262;DHT22;29629;52.532;13.352;2023-06-14T13:32:02;28.10;86.20
41262;DHT22;29629;52.532;13.352;2023-06-14T13:34:30;27.90;86.50
41262;DHT22;29629;52.532;13.352;2023-06-14T13:36:57;27.90;86.20
41262;DHT22;29629;52.532;13.352;2023-06-14T13:39:24;27.70;85.40
41262;DHT22;29629;52.532;13.352;2023-06-14T13:41:51;27.30;85.60
41262;DHT22;29629;52.532;13.352;2023-06-14T13:44:18;26.90;86.20
41262;DHT22;29629;52.532;13.352;2023-06-14T13:46:47;27.00;87.10
41262;DHT22;29629;52.532;13.352;2023-06-14T13:49:15;26.80;84.30
41262;DHT22;29629;52.532;13.352;2023-06-14T13:51:42;26.80;84.90
41262;DHT22;29629;52.532;13.352;2023-06-14T13:54:12;26.70;86.20
41262;DHT22;29629;52.532;13.352;2023-06-14T13:56:40;26.70;85.40
41262;DHT22;29629;52.532;13.352;2023-06-14T13:59:07;27.10;84.80
41262;DHT22;29629;52.532;13.352;2023-06-14T14:01:35;27.20;84.90
41262;DHT22;29629;52.532;13.352;2023-06-14T14:04:01;27.00;85.70
41262;DHT22;29629;52.532;13.352;2023-06-14T14:06:30;26.80;86.70
41262;DHT22;29629;52.532;13.352;2023-06-14T14:08:57;26.70;86.00
41262;DHT22;29629;52.532;13.352;2023-06-14T14:11:24;26.50;86.70
41262;DHT22;29629;52.532;13.352;2023-06-14T14:13:51;26.30;85.90
41262;DHT22;29629;52.532;13.352;2023-06-14T14:16:18;26.30;86.30
41262;DHT22;29629;52.532;13.352;2023-06-14T14:18:46;26.10;86.40
41262;DHT22;29629;52.532;13.352;2023-06-14T14:21:12;26.00;87.20
41262;DHT22;29629;52.532;13.352;2023-06-14T14:23:41;25.90;86.10
41262;DHT22;29629;52.532;13.352;2023-06-14T14:26:08;25.80;86.80
41262;DHT22;29629;52.532;13.352;2023-06-14T14:28:35;25.50;89.00
41262;DHT22;29629;52.532;13.352;2023-06-14T14:31:02;25.50;90.30
41262;DHT22;29629;52.532;13.352;2023-06-14T14:33:29;25.40;90.90
41262;DHT22;29629;52.532;13.352;2023-06-14T14:35:56;25.10;90.70
41262;DHT22;29629;52.532;13.352;2023-06-14T14:38:22;24.80;91.10
41262;DHT22;29629;52.532;13.352;2023-06-14T14:40:51;24.90;91.10
41262;DHT22;29629;52.532;13.352;2023-06-14T14:43:18;24.90;91.70
41262;DHT22;29629;52.532;13.352;2023-06-14T14:45:45;24.80;91.50
41262;DHT22;29629;52.532;13.352;2023-06-14T14:48:11;24.80;91.80
41262;DHT22;29629;52.532;13.352;2023-06-14T14:50:38;24.70;91.80
41262;DHT22;29629;52.532;13.352;2023-06-14T14:53:05;24.50;91.90
41262;DHT22;29629;52.532;13.352;2023-06-14T14:55:33;24.40;92.10
41262;DHT22;29629;52.532;13.352;2023-06-14T14:58:03;24.30;92.50
41262;DHT22;29629;52.532;13.352;2023-06-14T15:00:32;24.30;92.80
41262;DHT22;29629;52.532;13.352;2023-06-14T15:02:59;24.30;92.90
41262;DHT22;29629;52.532;13.352;2023-06-14T15:05:26;24.20;93.00
41262;DHT22;29629;52.532;13.352;2023-06-14T15:07:53;24.20;92.70
41262;DHT22;29629;52.532;13.352;2023-06-14T15:10:20;24.30;92.90
41262;DHT22;29629;52.532;13.352;2023-06-14T15:12:47;24.20;93.10
41262;DHT22;29629;52.532;13.352;2023-06-14T15:15:15;24.00;92.90
41262;DHT22;29629;52.532;13.352;2023-06-14T15:17:42;23.90;93.10
41262;DHT22;29629;52.532;13.352;2023-06-14T15:20:10;23.90;93.20
41262;DHT22;29629;52.532;13.352;2023-06-14T15:22:38;23.90;93.60
41262;DHT22;29629;52.532;13.352;2023-06-14T15:25:05;23.80;93.20
41262;DHT22;29629;52.532;13.352;2023-06-14T15:27:32;23.70;93.50